sensor_id;sensor_type;location;lat;lon;timestamp;temperature;humidity
35043;DHT22;21230;51.170;17.024;2022-12-15T00:00:06;-3.00;99.90
35043;DHT22;21230;51.170;17.024;2022-12-15T00:02:51;-2.90;99.90
35043;DHT22;21230;51.170;17.024;2022-12-15T00:05:35;-3.00;99.90
35043;DHT22;21230;51.170;17.024;2022-12-15T00:08:25;-2.90;99.90
35043;DHT22;21230;51.170;17.024;2022-12-15T00:11:09;-3.00;99.90
35043;DHT22;21230;51.170;17.024;2022-12-15T00:13:53;-3.10;99.90
35043;DHT22;21230;51.170;17.024;2022-12-15T00:16:37;-3.00;99.90
35043;DHT22;21230;51.170;17.024;2022-12-15T00:19:21;-3.10;99.90
35043;DHT22;21230;51.170;17.024;2022-12-15T00:22:05;-3.20;99.90
35043;DHT22;21230;51.170;17.024;2022-12-15T00:24:50;-3.20;99.90
35043;DHT22;21230;51.170;17.024;2022-12-15T00:27:34;-3.20;99.90
35043;DHT22;21230;51.170;17.024;2022-12-15T00:30:18;-3.30;99.90
35043;DHT22;21230;51.170;17.024;2022-12-15T00:33:09;-3.40;99.90
35043;DHT22;21230;51.170;17.024;2022-12-15T00:35:53;-3.50;99.90
35043;DHT22;21230;51.170;17.024;2022-12-15T00:38:38;-3.60;99.90
35043;DHT22;21230;51.170;17.024;2022-12-15T00:41:10;-3.60;99.90
35043;DHT22;21230;51.170;17.024;2022-12-15T00:43:38;-3.70;99.90
35043;DHT22;21230;51.170;17.024;2022-12-15T00:46:04;-3.70;99.90
35043;DHT22;21230;51.170;17.024;2022-12-15T00:48:48;-3.70;99.90
35043;DHT22;21230;51.170;17.024;2022-12-15T00:51:14;-3.70;99.90
35043;DHT22;21230;51.170;17.024;2022-12-15T00:53:40;-3.80;99.90
35043;DHT22;21230;51.170;17.024;2022-12-15T00:56:25;-3.80;99.90
35043;DHT22;21230;51.170;17.024;2022-12-15T00:59:09;-3.80;99.90
35043;DHT22;21230;51.170;17.024;2022-12-15T01:01:54;-3.90;99.90
35043;DHT22;21230;51.170;17.024;2022-12-15T01:04:38;-3.80;99.90
35043;DHT22;21230;51.170;17.024;2022-12-15T01:07:22;-3.80;99.90
35043;DHT22;21230;51.170;17.024;2022-12-15T01:10:07;-3.90;99.90
35043;DHT22;21230;51.170;17.024;2022-12-15T01:12:51;-3.90;99.90
35043;DHT22;21230;51.170;17.024;2022-12-15T01:15:37;-3.90;99.90
35043;DHT22;21230;51.170;17.024;2022-12-15T01:18:22;-3.90;99.90
35043;DHT22;21230;51.170;17.024;2022-12-15T01:21:06;-3.90;99.90
35043;DHT22;21230;51.170;17.024;2022-12-15T01:23:37;-3.90;99.90
35043;DHT22;21230;51.170;17.024;2022-12-15T01:26:25;-3.90;99.90
35043;DHT22;21230;51.170;17.024;2022-12-15T01:29:00;-3.90;99.90
35043;DHT22;21230;51.170;17.024;2022-12-15T01:31:27;-3.90;99.90
35043;DHT22;21230;51.170;17.024;2022-12-15T01:33:53;-3.90;99.90
35043;DHT22;21230;51.170;17.024;2022-12-15T01:36:19;-3.90;99.90
35043;DHT22;21230;51.170;17.024;2022-12-15T01:38:45;-3.90;99.90
35043;DHT22;21230;51.170;17.024;2022-12-15T01:41:11;-3.90;99.90
35043;DHT22;21230;51.170;17.024;2022-12-15T01:43:39;-3.90;99.90
35043;DHT22;21230;51.170;17.024;2022-12-15T01:46:12;-4.00;99.90
35043;DHT22;21230;51.170;17.024;2022-12-15T01:48:48;-3.90;99.90
35043;DHT22;21230;51.170;17.024;2022-12-15T01:51:39;-4.00;99.90
35043;DHT22;21230;51.170;17.024;2022-12-15T01:56:37;-3.90;99.90
35043;DHT22;21230;51.170;17.024;2022-12-15T01:59:07;-3.90;99.90
35043;DHT22;21230;51.170;17.024;2022-12-15T02:01:34;-3.90;99.90
35043;DHT22;21230;51.170;17.024;2022-12-15T02:04:03;-3.90;99.90
35043;DHT22;21230;51.170;17.024;2022-12-15T02:06:29;-3.90;99.90
35043;DHT22;21230;51.170;17.024;2022-12-15T02:08:56;-3.90;99.90
35043;DHT22;21230;51.170;17.024;2022-12-15T02:11:41;-3.80;99.90
35043;DHT22;21230;51.170;17.024;2022-12-15T02:14:11;-3.90;99.90
35043;DHT22;21230;51.170;17.024;2022-12-15T02:28:10;-3.90;99.90
35043;DHT22;21230;51.170;17.024;2022-12-15T02:30:50;-3.90;99.90
35043;DHT22;21230;51.170;17.024;2022-12-15T02:33:43;-3.90;99.90
35043;DHT22;21230;51.170;17.024;2022-12-15T02:36:24;-3.80;99.90
35043;DHT22;21230;51.170;17.024;2022-12-15T02:38:52;-3.80;99.90
35043;DHT22;21230;51.170;17.024;2022-12-15T02:44:00;-3.80;99.90
35043;DHT22;21230;51.170;17.024;2022-12-15T02:46:39;-3.80;99.90
35043;DHT22;21230;51.170;17.024;2022-12-15T02:49:26;-3.80;99.90
35043;DHT22;21230;51.170;17.024;2022-12-15T03:01:37;-3.70;99.90
35043;DHT22;21230;51.170;17.024;2022-12-15T03:04:08;-3.70;99.90
35043;DHT22;21230;51.170;17.024;2022-12-15T03:06:36;-3.60;99.90
35043;DHT22;21230;51.170;17.024;2022-12-15T03:09:03;-3.70;99.90
35043;DHT22;21230;51.170;17.024;2022-12-15T03:11:29;-3.60;99.90
35043;DHT22;21230;51.170;17.024;2022-12-15T03:13:55;-3.60;99.90
35043;DHT22;21230;51.170;17.024;2022-12-15T03:16:20;-3.50;99.90
35043;DHT22;21230;51.170;17.024;2022-12-15T03:18:46;-3.50;99.90
35043;DHT22;21230;51.170;17.024;2022-12-15T03:21:13;-3.50;99.90
35043;DHT22;21230;51.170;17.024;2022-12-15T03:23:39;-3.40;99.90
35043;DHT22;21230;51.170;17.024;2022-12-15T03:26:05;-3.40;99.90
35043;DHT22;21230;51.170;17.024;2022-12-15T03:28:32;-3.40;99.90
35043;DHT22;21230;51.170;17.024;2022-12-15T03:30:58;-3.40;99.90
35043;DHT22;21230;51.170;17.024;2022-12-15T03:33:24;-3.40;99.90
35043;DHT22;21230;51.170;17.024;2022-12-15T03:35:49;-3.40;99.90
35043;DHT22;21230;51.170;17.024;2022-12-15T03:38:16;-3.50;99.90
35043;DHT22;21230;51.170;17.024;2022-12-15T03:40:42;-3.40;99.90
35043;DHT22;21230;51.170;17.024;2022-12-15T03:43:20;-3.40;99.90
35043;DHT22;21230;51.170;17.024;2022-12-15T03:45:46;-3.40;99.90
35043;DHT22;21230;51.170;17.024;2022-12-15T03:48:11;-3.40;99.90
35043;DHT22;21230;51.170;17.024;2022-12-15T03:50:37;-3.40;99.90
35043;DHT22;21230;51.170;17.024;2022-12-15T03:53:03;-3.40;99.90
35043;DHT22;21230;51.170;17.024;2022-12-15T03:55:29;-3.40;99.90
35043;DHT22;21230;51.170;17.024;2022-12-15T03:57:55;-3.40;99.90
35043;DHT22;21230;51.170;17.024;2022-12-15T04:00:21;-3.40;99.90
35043;DHT22;21230;51.170;17.024;2022-12-15T04:02:47;-3.30;99.90
35043;DHT22;21230;51.170;17.024;2022-12-15T04:05:14;-3.30;99.90
35043;DHT22;21230;51.170;17.024;2022-12-15T04:07:41;-3.30;99.90
35043;DHT22;21230;51.170;17.024;2022-12-15T04:10:07;-3.30;99.90
35043;DHT22;21230;51.170;17.024;2022-12-15T04:12:34;-3.30;99.90
35043;DHT22;21230;51.170;17.024;2022-12-15T04:14:59;-3.30;99.90
35043;DHT22;21230;51.170;17.024;2022-12-15T04:17:25;-3.30;99.90
35043;DHT22;21230;51.170;17.024;2022-12-15T04:19:51;-3.20;99.90
35043;DHT22;21230;51.170;17.024;2022-12-15T04:22:45;-3.20;99.90
35043;DHT22;21230;51.170;17.024;2022-12-15T04:25:12;-3.20;99.90
35043;DHT22;21230;51.170;17.024;2022-12-15T04:27:57;-3.10;99.90
35043;DHT22;21230;51.170;17.024;2022-12-15T04:30:46;-3.10;99.90
35043;DHT22;21230;51.170;17.024;2022-12-15T04:33:31;-3.10;99.90
35043;DHT22;21230;51.170;17.024;2022-12-15T04:36:16;-3.10;99.90
35043;DHT22;21230;51.170;17.024;2022-12-15T04:39:01;-3.10;99.90
35043;DHT22;21230;51.170;17.024;2022-12-15T04:41:46;-3.10;99.90
35043;DHT22;21230;51.170;17.024;2022-12-15T04:44:30;-3.00;99.90
35043;DHT22;21230;51.170;17.024;2022-12-15T04:47:14;-3.00;99.90
35043;DHT22;21230;51.170;17.024;2022-12-15T04:49:58;-3.00;99.90
35043;DHT22;21230;51.170;17.024;2022-12-15T04:52:43;-3.00;99.90
35043;DHT22;21230;51.170;17.024;2022-12-15T04:55:27;-3.10;99.90
35043;DHT22;21230;51.170;17.024;2022-12-15T04:58:11;-3.10;99.90
35043;DHT22;21230;51.170;17.024;2022-12-15T05:00:56;-3.10;99.90
35043;DHT22;21230;51.170;17.024;2022-12-15T05:03:40;-3.00;99.90
35043;DHT22;21230;51.170;17.024;2022-12-15T05:06:25;-3.00;99.90
35043;DHT22;21230;51.170;17.024;2022-12-15T05:09:09;-3.00;99.90
35043;DHT22;21230;51.170;17.024;2022-12-15T05:11:53;-3.00;99.90
35043;DHT22;21230;51.170;17.024;2022-12-15T05:14:37;-3.10;99.90
35043;DHT22;21230;51.170;17.024;2022-12-15T05:17:21;-3.00;99.90
35043;DHT22;21230;51.170;17.024;2022-12-15T05:20:06;-3.00;99.90
35043;DHT22;21230;51.170;17.024;2022-12-15T05:22:54;-3.00;99.90
35043;DHT22;21230;51.170;17.024;2022-12-15T05:25:38;-2.90;99.90
35043;DHT22;21230;51.170;17.024;2022-12-15T05:28:22;-2.90;99.90
35043;DHT22;21230;51.170;17.024;2022-12-15T05:31:07;-2.90;99.90
35043;DHT22;21230;51.170;17.024;2022-12-15T05:33:51;-2.90;99.90
35043;DHT22;21230;51.170;17.024;2022-12-15T05:36:18;-2.90;99.90
35043;DHT22;21230;51.170;17.024;2022-12-15T05:38:46;-2.80;99.90
35043;DHT22;21230;51.170;17.024;2022-12-15T05:41:12;-2.70;99.90
35043;DHT22;21230;51.170;17.024;2022-12-15T05:43:38;-2.70;99.90
35043;DHT22;21230;51.170;17.024;2022-12-15T05:46:03;-2.70;99.90
35043;DHT22;21230;51.170;17.024;2022-12-15T05:48:29;-2.70;99.90
35043;DHT22;21230;51.170;17.024;2022-12-15T05:50:54;-2.70;99.90
35043;DHT22;21230;51.170;17.024;2022-12-15T05:53:20;-2.70;99.90
35043;DHT22;21230;51.170;17.024;2022-12-15T05:55:46;-2.70;99.90
35043;DHT22;21230;51.170;17.024;2022-12-15T05:58:11;-2.70;99.90
35043;DHT22;21230;51.170;17.024;2022-12-15T06:00:37;-2.70;99.90
35043;DHT22;21230;51.170;17.024;2022-12-15T06:03:03;-2.70;99.90
35043;DHT22;21230;51.170;17.024;2022-12-15T06:05:28;-2.60;99.90
35043;DHT22;21230;51.170;17.024;2022-12-15T06:07:54;-2.50;99.90
35043;DHT22;21230;51.170;17.024;2022-12-15T06:10:20;-2.40;99.90
35043;DHT22;21230;51.170;17.024;2022-12-15T06:12:46;-2.40;99.90
35043;DHT22;21230;51.170;17.024;2022-12-15T06:15:12;-2.50;99.90
35043;DHT22;21230;51.170;17.024;2022-12-15T06:17:37;-2.50;99.90
35043;DHT22;21230;51.170;17.024;2022-12-15T06:20:03;-2.50;99.90
35043;DHT22;21230;51.170;17.024;2022-12-15T06:22:29;-2.60;99.90
35043;DHT22;21230;51.170;17.024;2022-12-15T06:24:55;-2.50;99.90
35043;DHT22;21230;51.170;17.024;2022-12-15T06:27:20;-2.50;99.90
35043;DHT22;21230;51.170;17.024;2022-12-15T06:29:46;-2.50;99.90
35043;DHT22;21230;51.170;17.024;2022-12-15T06:32:12;-2.40;99.90
35043;DHT22;21230;51.170;17.024;2022-12-15T06:34:37;-2.50;99.90
35043;DHT22;21230;51.170;17.024;2022-12-15T06:37:03;-2.50;99.90
35043;DHT22;21230;51.170;17.024;2022-12-15T06:39:29;-2.50;99.90
35043;DHT22;21230;51.170;17.024;2022-12-15T06:42:05;-2.50;99.90
35043;DHT22;21230;51.170;17.024;2022-12-15T06:44:31;-2.50;99.90
35043;DHT22;21230;51.170;17.024;2022-12-15T06:46:56;-2.50;99.90
35043;DHT22;21230;51.170;17.024;2022-12-15T06:49:22;-2.50;99.90
35043;DHT22;21230;51.170;17.024;2022-12-15T06:51:48;-2.50;99.90
35043;DHT22;21230;51.170;17.024;2022-12-15T06:54:14;-2.40;99.90
35043;DHT22;21230;51.170;17.024;2022-12-15T06:56:39;-2.40;99.90
35043;DHT22;21230;51.170;17.024;2022-12-15T06:59:05;-2.40;99.90
35043;DHT22;21230;51.170;17.024;2022-12-15T07:01:31;-2.40;99.90
35043;DHT22;21230;51.170;17.024;2022-12-15T07:03:58;-2.40;99.90
35043;DHT22;21230;51.170;17.024;2022-12-15T07:06:27;-2.40;99.90
35043;DHT22;21230;51.170;17.024;2022-12-15T07:08:56;-2.40;99.90
35043;DHT22;21230;51.170;17.024;2022-12-15T07:11:21;-2.40;99.90
35043;DHT22;21230;51.170;17.024;2022-12-15T07:13:48;-2.40;99.90
35043;DHT22;21230;51.170;17.024;2022-12-15T07:16:14;-2.30;99.90
35043;DHT22;21230;51.170;17.024;2022-12-15T07:18:40;-2.30;99.90
35043;DHT22;21230;51.170;17.024;2022-12-15T07:21:06;-2.30;99.90
35043;DHT22;21230;51.170;17.024;2022-12-15T07:23:32;-2.30;99.90
35043;DHT22;21230;51.170;17.024;2022-12-15T07:26:02;-2.20;99.90
35043;DHT22;21230;51.170;17.024;2022-12-15T07:28:28;-2.20;99.90
35043;DHT22;21230;51.170;17.024;2022-12-15T07:30:54;-2.20;99.90
35043;DHT22;21230;51.170;17.024;2022-12-15T07:33:20;-2.30;99.90
35043;DHT22;21230;51.170;17.024;2022-12-15T07:35:52;-2.30;99.90
35043;DHT22;21230;51.170;17.024;2022-12-15T07:38:18;-2.20;99.90
35043;DHT22;21230;51.170;17.024;2022-12-15T07:40:44;-2.20;99.90
35043;DHT22;21230;51.170;17.024;2022-12-15T07:43:10;-2.30;99.90
35043;DHT22;21230;51.170;17.024;2022-12-15T07:45:35;-2.20;99.90
35043;DHT22;21230;51.170;17.024;2022-12-15T07:48:01;-2.30;99.90
35043;DHT22;21230;51.170;17.024;2022-12-15T07:53:35;-2.30;99.90
35043;DHT22;21230;51.170;17.024;2022-12-15T07:56:01;-2.20;99.90
35043;DHT22;21230;51.170;17.024;2022-12-15T07:58:28;-2.20;99.90
35043;DHT22;21230;51.170;17.024;2022-12-15T08:00:57;-2.20;99.90
35043;DHT22;21230;51.170;17.024;2022-12-15T08:03:23;-2.20;99.90
35043;DHT22;21230;51.170;17.024;2022-12-15T08:05:49;-2.20;99.90
35043;DHT22;21230;51.170;17.024;2022-12-15T08:08:16;-2.20;99.90
35043;DHT22;21230;51.170;17.024;2022-12-15T08:10:43;-2.20;99.90
35043;DHT22;21230;51.170;17.024;2022-12-15T08:13:10;-2.20;99.90
35043;DHT22;21230;51.170;17.024;2022-12-15T08:15:39;-2.20;99.90
35043;DHT22;21230;51.170;17.024;2022-12-15T08:18:05;-2.20;99.90
35043;DHT22;21230;51.170;17.024;2022-12-15T08:20:31;-2.20;99.90
35043;DHT22;21230;51.170;17.024;2022-12-15T08:22:59;-2.20;99.90
35043;DHT22;21230;51.170;17.024;2022-12-15T08:25:25;-2.20;99.90
35043;DHT22;21230;51.170;17.024;2022-12-15T08:27:55;-2.10;99.90
35043;DHT22;21230;51.170;17.024;2022-12-15T08:30:22;-2.10;99.90
35043;DHT22;21230;51.170;17.024;2022-12-15T08:32:48;-2.10;99.90
35043;DHT22;21230;51.170;17.024;2022-12-15T08:35:14;-2.10;99.90
35043;DHT22;21230;51.170;17.024;2022-12-15T08:37:42;-2.10;99.90
35043;DHT22;21230;51.170;17.024;2022-12-15T08:40:08;-2.10;99.90
35043;DHT22;21230;51.170;17.024;2022-12-15T08:42:34;-2.10;99.90
35043;DHT22;21230;51.170;17.024;2022-12-15T08:45:00;-2.10;99.90
35043;DHT22;21230;51.170;17.024;2022-12-15T08:47:26;-2.10;99.90
35043;DHT22;21230;51.170;17.024;2022-12-15T08:49:53;-2.00;99.90
35043;DHT22;21230;51.170;17.024;2022-12-15T08:52:21;-2.00;99.90
35043;DHT22;21230;51.170;17.024;2022-12-15T08:54:47;-2.00;99.90
35043;DHT22;21230;51.170;17.024;2022-12-15T08:57:13;-2.00;99.90
35043;DHT22;21230;51.170;17.024;2022-12-15T08:59:39;-1.90;99.90
35043;DHT22;21230;51.170;17.024;2022-12-15T09:02:04;-1.90;99.90
35043;DHT22;21230;51.170;17.024;2022-12-15T09:04:30;-1.90;99.90
35043;DHT22;21230;51.170;17.024;2022-12-15T09:06:56;-1.90;99.90
35043;DHT22;21230;51.170;17.024;2022-12-15T09:09:21;-2.00;99.90
35043;DHT22;21230;51.170;17.024;2022-12-15T09:11:47;-2.00;99.90
35043;DHT22;21230;51.170;17.024;2022-12-15T09:14:15;-2.00;99.90
35043;DHT22;21230;51.170;17.024;2022-12-15T09:16:41;-2.00;99.90
35043;DHT22;21230;51.170;17.024;2022-12-15T09:19:07;-1.80;99.90
35043;DHT22;21230;51.170;17.024;2022-12-15T09:21:33;-1.90;99.90
35043;DHT22;21230;51.170;17.024;2022-12-15T09:23:59;-1.80;99.90
35043;DHT22;21230;51.170;17.024;2022-12-15T09:26:26;-1.80;99.90
35043;DHT22;21230;51.170;17.024;2022-12-15T09:28:52;-1.80;99.90
35043;DHT22;21230;51.170;17.024;2022-12-15T09:31:24;-1.70;99.90
35043;DHT22;21230;51.170;17.024;2022-12-15T09:33:51;-1.70;99.90
35043;DHT22;21230;51.170;17.024;2022-12-15T09:36:17;-1.80;99.90
35043;DHT22;21230;51.170;17.024;2022-12-15T09:38:43;-1.70;99.90
35043;DHT22;21230;51.170;17.024;2022-12-15T09:43:39;-1.80;99.90
35043;DHT22;21230;51.170;17.024;2022-12-15T09:46:07;-1.70;99.90
35043;DHT22;21230;51.170;17.024;2022-12-15T09:48:37;-1.70;99.90
35043;DHT22;21230;51.170;17.024;2022-12-15T09:51:04;-1.50;99.90
35043;DHT22;21230;51.170;17.024;2022-12-15T09:53:32;-1.50;99.90
35043;DHT22;21230;51.170;17.024;2022-12-15T09:56:00;-1.50;99.90
35043;DHT22;21230;51.170;17.024;2022-12-15T09:58:32;-1.50;99.90
35043;DHT22;21230;51.170;17.024;2022-12-15T10:08:38;-1.30;99.90
35043;DHT22;21230;51.170;17.024;2022-12-15T10:13:43;-1.00;99.90
35043;DHT22;21230;51.170;17.024;2022-12-15T10:16:17;-0.80;99.90
35043;DHT22;21230;51.170;17.024;2022-12-15T10:19:06;-0.80;99.90
35043;DHT22;21230;51.170;17.024;2022-12-15T10:21:31;-0.80;99.90
35043;DHT22;21230;51.170;17.024;2022-12-15T10:24:16;-0.90;99.90
35043;DHT22;21230;51.170;17.024;2022-12-15T10:26:43;-0.90;99.90
35043;DHT22;21230;51.170;17.024;2022-12-15T10:31:55;-0.90;99.90
35043;DHT22;21230;51.170;17.024;2022-12-15T10:34:25;-0.60;99.90
35043;DHT22;21230;51.170;17.024;2022-12-15T10:36:51;-0.60;99.90
35043;DHT22;21230;51.170;17.024;2022-12-15T10:39:16;-0.40;99.90
35043;DHT22;21230;51.170;17.024;2022-12-15T10:41:42;-0.30;99.90
35043;DHT22;21230;51.170;17.024;2022-12-15T10:44:42;-0.30;99.90
35043;DHT22;21230;51.170;17.024;2022-12-15T10:47:07;-0.40;99.90
35043;DHT22;21230;51.170;17.024;2022-12-15T10:49:33;-0.80;99.90
35043;DHT22;21230;51.170;17.024;2022-12-15T10:51:59;-0.90;99.90
35043;DHT22;21230;51.170;17.024;2022-12-15T10:54:26;-0.90;99.90
35043;DHT22;21230;51.170;17.024;2022-12-15T10:56:55;-1.10;99.90
35043;DHT22;21230;51.170;17.024;2022-12-15T10:59:29;-1.20;99.90
35043;DHT22;21230;51.170;17.024;2022-12-15T11:04:43;-1.00;99.90
35043;DHT22;21230;51.170;17.024;2022-12-15T11:07:18;-1.00;99.90
35043;DHT22;21230;51.170;17.024;2022-12-15T11:09:44;-1.00;99.90
35043;DHT22;21230;51.170;17.024;2022-12-15T11:12:20;-1.10;99.90
35043;DHT22;21230;51.170;17.024;2022-12-15T11:15:31;-1.00;99.90
35043;DHT22;21230;51.170;17.024;2022-12-15T11:18:12;-0.80;99.90
35043;DHT22;21230;51.170;17.024;2022-12-15T11:20:41;-0.70;99.90
35043;DHT22;21230;51.170;17.024;2022-12-15T11:23:13;-0.60;99.90
35043;DHT22;21230;51.170;17.024;2022-12-15T11:25:41;-0.70;99.90
35043;DHT22;21230;51.170;17.024;2022-12-15T11:28:18;-0.70;99.90
35043;DHT22;21230;51.170;17.024;2022-12-15T11:30:46;-0.70;99.90
35043;DHT22;21230;51.170;17.024;2022-12-15T11:33:13;-0.50;99.90
35043;DHT22;21230;51.170;17.024;2022-12-15T11:38:12;-0.50;99.90
35043;DHT22;21230;51.170;17.024;2022-12-15T11:40:41;-0.50;99.90
35043;DHT22;21230;51.170;17.024;2022-12-15T11:51:05;-0.50;99.90
35043;DHT22;21230;51.170;17.024;2022-12-15T11:56:05;-0.40;99.90
35043;DHT22;21230;51.170;17.024;2022-12-15T12:19:00;0.00;99.90
35043;DHT22;21230;51.170;17.024;2022-12-15T12:21:28;0.00;99.90
35043;DHT22;21230;51.170;17.024;2022-12-15T12:23:57;0.00;99.90
35043;DHT22;21230;51.170;17.024;2022-12-15T12:26:34;0.00;99.90
35043;DHT22;21230;51.170;17.024;2022-12-15T12:29:15;-0.10;99.90
35043;DHT22;21230;51.170;17.024;2022-12-15T12:36:52;-0.30;99.90
35043;DHT22;21230;51.170;17.024;2022-12-15T12:39:20;-0.40;99.90
35043;DHT22;21230;51.170;17.024;2022-12-15T12:41:48;-0.40;99.90
35043;DHT22;21230;51.170;17.024;2022-12-15T12:44:22;-0.40;99.90
35043;DHT22;21230;51.170;17.024;2022-12-15T12:46:50;-0.40;99.90
35043;DHT22;21230;51.170;17.024;2022-12-15T12:51:49;-0.30;99.90
35043;DHT22;21230;51.170;17.024;2022-12-15T12:56:57;-0.30;99.90
35043;DHT22;21230;51.170;17.024;2022-12-15T13:01:55;-0.40;99.90
35043;DHT22;21230;51.170;17.024;2022-12-15T13:09:22;-0.40;99.90
35043;DHT22;21230;51.170;17.024;2022-12-15T13:15:02;-0.30;99.90
35043;DHT22;21230;51.170;17.024;2022-12-15T13:17:04;-0.40;99.90
35043;DHT22;21230;51.170;17.024;2022-12-15T13:24:54;-0.40;99.90
35043;DHT22;21230;51.170;17.024;2022-12-15T13:27:21;-0.30;99.90
35043;DHT22;21230;51.170;17.024;2022-12-15T13:29:54;-0.30;99.90
35043;DHT22;21230;51.170;17.024;2022-12-15T13:33:12;-0.30;99.90
35043;DHT22;21230;51.170;17.024;2022-12-15T13:37:43;-0.50;99.90
35043;DHT22;21230;51.170;17.024;2022-12-15T13:42:55;-0.60;99.90
35043;DHT22;21230;51.170;17.024;2022-12-15T13:45:42;-0.60;99.90
35043;DHT22;21230;51.170;17.024;2022-12-15T13:48:22;-0.50;99.90
35043;DHT22;21230;51.170;17.024;2022-12-15T13:50:55;-0.50;99.90
35043;DHT22;21230;51.170;17.024;2022-12-15T13:53:22;-0.60;99.90
35043;DHT22;21230;51.170;17.024;2022-12-15T13:56:02;-0.70;99.90
35043;DHT22;21230;51.170;17.024;2022-12-15T13:58:30;-0.60;99.90
35043;DHT22;21230;51.170;17.024;2022-12-15T14:00:58;-0.60;99.90
35043;DHT22;21230;51.170;17.024;2022-12-15T14:03:23;-0.60;99.90
35043;DHT22;21230;51.170;17.024;2022-12-15T14:05:53;-0.70;99.90
35043;DHT22;21230;51.170;17.024;2022-12-15T14:08:20;-0.70;99.90
35043;DHT22;21230;51.170;17.024;2022-12-15T14:13:19;-0.70;99.90
35043;DHT22;21230;51.170;17.024;2022-12-15T14:15:48;-0.80;99.90
35043;DHT22;21230;51.170;17.024;2022-12-15T14:18:25;-0.80;99.90
35043;DHT22;21230;51.170;17.024;2022-12-15T14:20:51;-0.90;99.90
35043;DHT22;21230;51.170;17.024;2022-12-15T14:23:18;-0.90;99.90
35043;DHT22;21230;51.170;17.024;2022-12-15T14:25:51;-1.00;99.90
35043;DHT22;21230;51.170;17.024;2022-12-15T14:28:22;-1.00;99.90
35043;DHT22;21230;51.170;17.024;2022-12-15T14:30:48;-1.00;99.90
35043;DHT22;21230;51.170;17.024;2022-12-15T14:33:15;-1.10;99.90
35043;DHT22;21230;51.170;17.024;2022-12-15T14:35:46;-1.20;99.90
35043;DHT22;21230;51.170;17.024;2022-12-15T14:38:13;-1.30;99.90
35043;DHT22;21230;51.170;17.024;2022-12-15T14:40:41;-1.40;99.90
35043;DHT22;21230;51.170;17.024;2022-12-15T14:43:10;-1.40;99.90
35043;DHT22;21230;51.170;17.024;2022-12-15T14:45:38;-1.50;99.90
35043;DHT22;21230;51.170;17.024;2022-12-15T14:48:07;-1.60;99.90
35043;DHT22;21230;51.170;17.024;2022-12-15T14:50:33;-1.60;99.90
35043;DHT22;21230;51.170;17.024;2022-12-15T14:53:00;-1.60;99.90
35043;DHT22;21230;51.170;17.024;2022-12-15T14:55:37;-1.60;99.90
35043;DHT22;21230;51.170;17.024;2022-12-15T14:58:23;-1.60;99.90
35043;DHT22;21230;51.170;17.024;2022-12-15T15:00:52;-1.60;99.90
35043;DHT22;21230;51.170;17.024;2022-12-15T15:03:19;-1.70;99.90
35043;DHT22;21230;51.170;17.024;2022-12-15T15:08:23;-1.80;99.90
35043;DHT22;21230;51.170;17.024;2022-12-15T15:10:50;-1.80;99.90
35043;DHT22;21230;51.170;17.024;2022-12-15T15:13:18;-1.90;99.90
35043;DHT22;21230;51.170;17.024;2022-12-15T15:15:55;-1.90;99.90
35043;DHT22;21230;51.170;17.024;2022-12-15T15:18:22;-1.90;99.90
35043;DHT22;21230;51.170;17.024;2022-12-15T15:20:50;-1.90;99.90
35043;DHT22;21230;51.170;17.024;2022-12-15T15:23:19;-1.90;99.90
35043;DHT22;21230;51.170;17.024;2022-12-15T15:25:54;-2.00;99.90
35043;DHT22;21230;51.170;17.024;2022-12-15T15:28:40;-2.00;99.90
35043;DHT22;21230;51.170;17.024;2022-12-15T15:33:51;-2.00;99.90
35043;DHT22;21230;51.170;17.024;2022-12-15T15:36:35;-2.10;99.90
35043;DHT22;21230;51.170;17.024;2022-12-15T15:39:11;-2.10;99.90
35043;DHT22;21230;51.170;17.024;2022-12-15T15:41:38;-2.10;99.90
35043;DHT22;21230;51.170;17.024;2022-12-15T15:44:05;-2.20;99.90
35043;DHT22;21230;51.170;17.024;2022-12-15T15:46:34;-2.20;99.90
35043;DHT22;21230;51.170;17.024;2022-12-15T15:49:05;-2.30;99.90
35043;DHT22;21230;51.170;17.024;2022-12-15T15:51:32;-2.40;99.90
35043;DHT22;21230;51.170;17.024;2022-12-15T15:54:02;-2.50;99.90
35043;DHT22;21230;51.170;17.024;2022-12-15T15:56:28;-2.70;99.90
35043;DHT22;21230;51.170;17.024;2022-12-15T15:58:55;-2.80;99.90
35043;DHT22;21230;51.170;17.024;2022-12-15T16:01:21;-2.90;99.90
35043;DHT22;21230;51.170;17.024;2022-12-15T16:03:47;-3.00;99.90
35043;DHT22;21230;51.170;17.024;2022-12-15T16:06:14;-3.10;99.90
35043;DHT22;21230;51.170;17.024;2022-12-15T16:08:41;-3.10;99.90
35043;DHT22;21230;51.170;17.024;2022-12-15T16:11:09;-3.10;99.90
35043;DHT22;21230;51.170;17.024;2022-12-15T16:13:35;-3.10;99.90
35043;DHT22;21230;51.170;17.024;2022-12-15T16:16:01;-3.20;99.90
35043;DHT22;21230;51.170;17.024;2022-12-15T16:18:27;-3.20;99.90
35043;DHT22;21230;51.170;17.024;2022-12-15T16:20:52;-3.30;99.90
35043;DHT22;21230;51.170;17.024;2022-12-15T16:23:19;-3.40;99.90
35043;DHT22;21230;51.170;17.024;2022-12-15T16:25:46;-3.50;99.90
35043;DHT22;21230;51.170;17.024;2022-12-15T16:28:13;-3.60;99.90
35043;DHT22;21230;51.170;17.024;2022-12-15T16:30:39;-3.70;99.90
35043;DHT22;21230;51.170;17.024;2022-12-15T16:33:05;-3.80;99.90
35043;DHT22;21230;51.170;17.024;2022-12-15T16:35:31;-3.90;99.90
35043;DHT22;21230;51.170;17.024;2022-12-15T16:38:23;-3.90;99.90
35043;DHT22;21230;51.170;17.024;2022-12-15T16:40:50;-4.00;99.90
35043;DHT22;21230;51.170;17.024;2022-12-15T16:43:17;-4.00;99.90
35043;DHT22;21230;51.170;17.024;2022-12-15T16:45:44;-4.00;99.90
35043;DHT22;21230;51.170;17.024;2022-12-15T16:48:10;-4.10;99.90
35043;DHT22;21230;51.170;17.024;2022-12-15T16:50:37;-4.20;99.90
35043;DHT22;21230;51.170;17.024;2022-12-15T16:53:03;-4.10;99.90
35043;DHT22;21230;51.170;17.024;2022-12-15T16:55:29;-4.10;99.90
35043;DHT22;21230;51.170;17.024;2022-12-15T16:58:00;-4.00;99.90
35043;DHT22;21230;51.170;17.024;2022-12-15T17:00:33;-3.90;99.90
35043;DHT22;21230;51.170;17.024;2022-12-15T17:02:59;-3.80;99.90
35043;DHT22;21230;51.170;17.024;2022-12-15T17:05:26;-3.80;99.90
35043;DHT22;21230;51.170;17.024;2022-12-15T17:07:57;-3.80;99.90
35043;DHT22;21230;51.170;17.024;2022-12-15T17:10:24;-3.70;99.90
35043;DHT22;21230;51.170;17.024;2022-12-15T17:12:53;-3.70;99.90
35043;DHT22;21230;51.170;17.024;2022-12-15T17:15:21;-3.60;99.90
35043;DHT22;21230;51.170;17.024;2022-12-15T17:17:48;-3.60;99.90
35043;DHT22;21230;51.170;17.024;2022-12-15T17:20:14;-3.60;99.90
35043;DHT22;21230;51.170;17.024;2022-12-15T17:22:57;-3.60;99.90
35043;DHT22;21230;51.170;17.024;2022-12-15T17:25:25;-3.60;99.90
35043;DHT22;21230;51.170;17.024;2022-12-15T17:28:01;-3.70;99.90
35043;DHT22;21230;51.170;17.024;2022-12-15T17:30:27;-3.80;99.90
35043;DHT22;21230;51.170;17.024;2022-12-15T17:32:53;-4.10;99.90
35043;DHT22;21230;51.170;17.024;2022-12-15T17:35:19;-4.30;99.90
35043;DHT22;21230;51.170;17.024;2022-12-15T17:37:45;-4.50;99.90